sensor_id;sensor_type;location;lat;lon;timestamp;temperature;humidity
67942;SHT31;54731;42.600;23.476;2023-03-07T00:01:01;6.71;63.97
67942;SHT31;54731;42.600;23.476;2023-03-07T00:03:26;6.78;63.66
67942;SHT31;54731;42.600;23.476;2023-03-07T00:06:07;6.88;63.87
67942;SHT31;54731;42.600;23.476;2023-03-07T00:08:34;6.82;64.01
67942;SHT31;54731;42.600;23.476;2023-03-07T00:11:01;6.85;64.11
67942;SHT31;54731;42.600;23.476;2023-03-07T00:13:29;7.05;63.40
67942;SHT31;54731;42.600;23.476;2023-03-07T00:15:54;7.28;62.66
67942;SHT31;54731;42.600;23.476;2023-03-07T00:18:19;7.31;62.62
67942;SHT31;54731;42.600;23.476;2023-03-07T00:20:45;7.38;62.69
67942;SHT31;54731;42.600;23.476;2023-03-07T00:23:20;7.37;62.75
67942;SHT31;54731;42.600;23.476;2023-03-07T00:25:58;7.43;62.59
67942;SHT31;54731;42.600;23.476;2023-03-07T00:28:24;7.44;62.66
67942;SHT31;54731;42.600;23.476;2023-03-07T00:30:49;7.42;62.71
67942;SHT31;54731;42.600;23.476;2023-03-07T00:33:14;7.40;62.82
67942;SHT31;54731;42.600;23.476;2023-03-07T00:35:39;7.57;62.16
67942;SHT31;54731;42.600;23.476;2023-03-07T00:38:05;7.53;62.42
67942;SHT31;54731;42.600;23.476;2023-03-07T00:40:30;7.50;62.70
67942;SHT31;54731;42.600;23.476;2023-03-07T00:42:55;7.50;62.50
67942;SHT31;54731;42.600;23.476;2023-03-07T00:45:21;7.50;62.69
67942;SHT31;54731;42.600;23.476;2023-03-07T00:47:46;7.51;62.62
67942;SHT31;54731;42.600;23.476;2023-03-07T00:50:11;7.57;62.12
67942;SHT31;54731;42.600;23.476;2023-03-07T00:52:36;7.68;61.59
67942;SHT31;54731;42.600;23.476;2023-03-07T00:55:02;7.75;61.14
67942;SHT31;54731;42.600;23.476;2023-03-07T00:57:27;7.77;61.40
67942;SHT31;54731;42.600;23.476;2023-03-07T00:59:52;7.77;60.57
67942;SHT31;54731;42.600;23.476;2023-03-07T01:02:18;7.80;60.84
67942;SHT31;54731;42.600;23.476;2023-03-07T01:04:43;7.81;60.54
67942;SHT31;54731;42.600;23.476;2023-03-07T01:07:08;7.80;60.72
67942;SHT31;54731;42.600;23.476;2023-03-07T01:09:34;7.74;60.73
67942;SHT31;54731;42.600;23.476;2023-03-07T01:11:59;7.81;59.50
67942;SHT31;54731;42.600;23.476;2023-03-07T01:14:24;7.85;59.27
67942;SHT31;54731;42.600;23.476;2023-03-07T01:16:50;7.82;59.54
67942;SHT31;54731;42.600;23.476;2023-03-07T01:19:15;7.81;59.30
67942;SHT31;54731;42.600;23.476;2023-03-07T01:21:42;7.87;58.78
67942;SHT31;54731;42.600;23.476;2023-03-07T01:24:11;7.84;58.20
67942;SHT31;54731;42.600;23.476;2023-03-07T01:26:37;7.84;58.77
67942;SHT31;54731;42.600;23.476;2023-03-07T01:29:05;7.94;57.17
67942;SHT31;54731;42.600;23.476;2023-03-07T01:31:31;7.98;55.57
67942;SHT31;54731;42.600;23.476;2023-03-07T01:33:57;7.92;57.51
67942;SHT31;54731;42.600;23.476;2023-03-07T01:36:25;7.82;58.09
67942;SHT31;54731;42.600;23.476;2023-03-07T01:38:54;7.75;58.75
67942;SHT31;54731;42.600;23.476;2023-03-07T01:41:20;7.64;59.35
67942;SHT31;54731;42.600;23.476;2023-03-07T01:43:45;7.40;60.54
67942;SHT31;54731;42.600;23.476;2023-03-07T01:48:58;7.15;61.53
67942;SHT31;54731;42.600;23.476;2023-03-07T01:51:24;7.10;61.76
67942;SHT31;54731;42.600;23.476;2023-03-07T01:53:51;7.03;62.04
67942;SHT31;54731;42.600;23.476;2023-03-07T01:56:17;6.95;62.28
67942;SHT31;54731;42.600;23.476;2023-03-07T01:58:42;6.96;62.47
67942;SHT31;54731;42.600;23.476;2023-03-07T02:01:09;6.99;62.14
67942;SHT31;54731;42.600;23.476;2023-03-07T02:03:50;6.89;63.67
67942;SHT31;54731;42.600;23.476;2023-03-07T02:06:16;6.82;63.29
67942;SHT31;54731;42.600;23.476;2023-03-07T02:08:43;6.79;63.44
67942;SHT31;54731;42.600;23.476;2023-03-07T02:11:09;6.83;63.40
67942;SHT31;54731;42.600;23.476;2023-03-07T02:13:35;6.85;63.53
67942;SHT31;54731;42.600;23.476;2023-03-07T02:16:01;6.93;63.50
67942;SHT31;54731;42.600;23.476;2023-03-07T02:18:32;7.05;61.92
67942;SHT31;54731;42.600;23.476;2023-03-07T02:23:57;7.26;61.23
67942;SHT31;54731;42.600;23.476;2023-03-07T02:28:54;7.50;60.60
67942;SHT31;54731;42.600;23.476;2023-03-07T02:31:20;7.50;60.56
67942;SHT31;54731;42.600;23.476;2023-03-07T02:33:46;7.28;60.64
67942;SHT31;54731;42.600;23.476;2023-03-07T02:36:18;7.33;60.93
67942;SHT31;54731;42.600;23.476;2023-03-07T02:38:45;7.47;60.22
67942;SHT31;54731;42.600;23.476;2023-03-07T02:41:14;7.57;60.14
67942;SHT31;54731;42.600;23.476;2023-03-07T02:43:41;7.60;60.31
67942;SHT31;54731;42.600;23.476;2023-03-07T02:46:06;7.77;59.91
67942;SHT31;54731;42.600;23.476;2023-03-07T02:48:32;7.78;59.69
67942;SHT31;54731;42.600;23.476;2023-03-07T02:50:57;7.78;59.36
67942;SHT31;54731;42.600;23.476;2023-03-07T02:53:22;7.50;60.42
67942;SHT31;54731;42.600;23.476;2023-03-07T02:55:48;7.36;61.48
67942;SHT31;54731;42.600;23.476;2023-03-07T02:58:13;7.28;61.83
67942;SHT31;54731;42.600;23.476;2023-03-07T03:00:38;7.23;62.31
67942;SHT31;54731;42.600;23.476;2023-03-07T03:03:04;7.19;62.46
67942;SHT31;54731;42.600;23.476;2023-03-07T03:05:30;7.15;62.72
67942;SHT31;54731;42.600;23.476;2023-03-07T03:07:55;7.16;62.82
67942;SHT31;54731;42.600;23.476;2023-03-07T03:10:20;7.09;63.15
67942;SHT31;54731;42.600;23.476;2023-03-07T03:12:46;7.09;63.31
67942;SHT31;54731;42.600;23.476;2023-03-07T03:15:11;7.02;64.08
67942;SHT31;54731;42.600;23.476;2023-03-07T03:17:37;7.00;64.10
67942;SHT31;54731;42.600;23.476;2023-03-07T03:20:03;6.99;64.36
67942;SHT31;54731;42.600;23.476;2023-03-07T03:22:28;7.00;64.02
67942;SHT31;54731;42.600;23.476;2023-03-07T03:24:53;6.99;64.41
67942;SHT31;54731;42.600;23.476;2023-03-07T03:27:19;6.99;63.80
67942;SHT31;54731;42.600;23.476;2023-03-07T03:29:44;7.00;61.06
67942;SHT31;54731;42.600;23.476;2023-03-07T03:32:09;7.07;61.86
67942;SHT31;54731;42.600;23.476;2023-03-07T03:34:35;7.07;61.94
67942;SHT31;54731;42.600;23.476;2023-03-07T03:37:00;7.12;61.00
67942;SHT31;54731;42.600;23.476;2023-03-07T03:39:25;7.10;61.59
67942;SHT31;54731;42.600;23.476;2023-03-07T03:41:51;7.12;62.39
67942;SHT31;54731;42.600;23.476;2023-03-07T03:44:16;7.13;63.07
67942;SHT31;54731;42.600;23.476;2023-03-07T03:46:41;7.12;63.07
67942;SHT31;54731;42.600;23.476;2023-03-07T03:49:07;7.03;64.05
67942;SHT31;54731;42.600;23.476;2023-03-07T03:51:32;6.97;63.87
67942;SHT31;54731;42.600;23.476;2023-03-07T03:53:57;6.97;63.98
67942;SHT31;54731;42.600;23.476;2023-03-07T03:56:24;6.92;64.19
67942;SHT31;54731;42.600;23.476;2023-03-07T03:58:51;6.89;64.55
67942;SHT31;54731;42.600;23.476;2023-03-07T04:01:18;6.88;65.08
67942;SHT31;54731;42.600;23.476;2023-03-07T04:03:46;6.88;64.90
67942;SHT31;54731;42.600;23.476;2023-03-07T04:06:17;6.83;64.80
67942;SHT31;54731;42.600;23.476;2023-03-07T04:08:43;6.72;64.80
67942;SHT31;54731;42.600;23.476;2023-03-07T04:11:09;6.71;65.15
67942;SHT31;54731;42.600;23.476;2023-03-07T04:13:35;6.69;65.43
67942;SHT31;54731;42.600;23.476;2023-03-07T04:16:00;6.71;65.22
67942;SHT31;54731;42.600;23.476;2023-03-07T04:18:26;6.65;65.91
67942;SHT31;54731;42.600;23.476;2023-03-07T04:20:52;6.59;66.00
67942;SHT31;54731;42.600;23.476;2023-03-07T04:23:18;6.49;66.09
67942;SHT31;54731;42.600;23.476;2023-03-07T04:25:51;6.51;66.03
67942;SHT31;54731;42.600;23.476;2023-03-07T04:28:17;6.52;66.21
67942;SHT31;54731;42.600;23.476;2023-03-07T04:30:43;6.44;66.38
67942;SHT31;54731;42.600;23.476;2023-03-07T04:33:09;6.46;66.16
67942;SHT31;54731;42.600;23.476;2023-03-07T04:35:35;6.45;65.91
67942;SHT31;54731;42.600;23.476;2023-03-07T04:38:00;6.46;65.75
67942;SHT31;54731;42.600;23.476;2023-03-07T04:40:25;6.48;65.68
67942;SHT31;54731;42.600;23.476;2023-03-07T04:42:51;6.53;65.64
67942;SHT31;54731;42.600;23.476;2023-03-07T04:45:16;6.53;65.45
67942;SHT31;54731;42.600;23.476;2023-03-07T04:47:41;6.59;65.20
67942;SHT31;54731;42.600;23.476;2023-03-07T04:50:07;6.52;65.88
67942;SHT31;54731;42.600;23.476;2023-03-07T04:52:32;6.58;65.89
67942;SHT31;54731;42.600;23.476;2023-03-07T04:54:58;6.53;66.46
67942;SHT31;54731;42.600;23.476;2023-03-07T04:57:23;6.51;66.39
67942;SHT31;54731;42.600;23.476;2023-03-07T04:59:48;6.55;66.36
67942;SHT31;54731;42.600;23.476;2023-03-07T05:02:14;6.64;65.85
67942;SHT31;54731;42.600;23.476;2023-03-07T05:04:39;6.62;65.98
67942;SHT31;54731;42.600;23.476;2023-03-07T05:07:04;6.61;65.36
67942;SHT31;54731;42.600;23.476;2023-03-07T05:09:30;6.62;65.62
67942;SHT31;54731;42.600;23.476;2023-03-07T05:11:55;6.75;63.44
67942;SHT31;54731;42.600;23.476;2023-03-07T05:14:20;6.82;63.32
67942;SHT31;54731;42.600;23.476;2023-03-07T05:16:46;6.83;64.68
67942;SHT31;54731;42.600;23.476;2023-03-07T05:19:11;6.86;64.61
67942;SHT31;54731;42.600;23.476;2023-03-07T05:21:36;6.89;64.47
67942;SHT31;54731;42.600;23.476;2023-03-07T05:24:02;6.89;64.38
67942;SHT31;54731;42.600;23.476;2023-03-07T05:26:27;6.93;64.14
67942;SHT31;54731;42.600;23.476;2023-03-07T05:28:52;6.89;63.70
67942;SHT31;54731;42.600;23.476;2023-03-07T05:31:18;6.92;63.39
67942;SHT31;54731;42.600;23.476;2023-03-07T05:33:43;6.93;64.37
67942;SHT31;54731;42.600;23.476;2023-03-07T05:36:08;6.91;64.25
67942;SHT31;54731;42.600;23.476;2023-03-07T05:38:34;6.99;63.45
67942;SHT31;54731;42.600;23.476;2023-03-07T05:40:59;6.95;63.84
67942;SHT31;54731;42.600;23.476;2023-03-07T05:43:25;6.95;64.31
67942;SHT31;54731;42.600;23.476;2023-03-07T05:45:50;6.93;64.94
67942;SHT31;54731;42.600;23.476;2023-03-07T05:48:15;6.83;65.69
67942;SHT31;54731;42.600;23.476;2023-03-07T05:50:41;6.83;65.72
67942;SHT31;54731;42.600;23.476;2023-03-07T05:53:06;6.81;65.81
67942;SHT31;54731;42.600;23.476;2023-03-07T05:55:31;6.64;66.54
67942;SHT31;54731;42.600;23.476;2023-03-07T05:57:57;6.69;66.49
67942;SHT31;54731;42.600;23.476;2023-03-07T06:00:22;6.76;66.88
67942;SHT31;54731;42.600;23.476;2023-03-07T06:02:47;6.76;66.32
67942;SHT31;54731;42.600;23.476;2023-03-07T06:05:12;6.86;65.98
67942;SHT31;54731;42.600;23.476;2023-03-07T06:07:38;6.81;65.40
67942;SHT31;54731;42.600;23.476;2023-03-07T06:10:03;6.82;65.46
67942;SHT31;54731;42.600;23.476;2023-03-07T06:12:29;6.83;65.70
67942;SHT31;54731;42.600;23.476;2023-03-07T06:14:54;6.86;65.23
67942;SHT31;54731;42.600;23.476;2023-03-07T06:17:19;6.88;65.86
67942;SHT31;54731;42.600;23.476;2023-03-07T06:19:45;6.81;66.84
67942;SHT31;54731;42.600;23.476;2023-03-07T06:22:10;6.64;67.94
67942;SHT31;54731;42.600;23.476;2023-03-07T06:24:36;6.71;67.89
67942;SHT31;54731;42.600;23.476;2023-03-07T06:27:01;6.82;67.45
67942;SHT31;54731;42.600;23.476;2023-03-07T06:29:26;6.85;67.23
67942;SHT31;54731;42.600;23.476;2023-03-07T06:31:51;6.93;66.72
67942;SHT31;54731;42.600;23.476;2023-03-07T06:34:17;7.00;66.55
67942;SHT31;54731;42.600;23.476;2023-03-07T06:36:42;7.03;65.94
67942;SHT31;54731;42.600;23.476;2023-03-07T06:39:07;7.09;65.20
67942;SHT31;54731;42.600;23.476;2023-03-07T06:41:33;7.13;65.14
67942;SHT31;54731;42.600;23.476;2023-03-07T06:43:58;7.13;65.42
67942;SHT31;54731;42.600;23.476;2023-03-07T06:46:23;7.16;65.64
67942;SHT31;54731;42.600;23.476;2023-03-07T06:48:48;7.22;65.08
67942;SHT31;54731;42.600;23.476;2023-03-07T06:51:14;7.30;64.58
67942;SHT31;54731;42.600;23.476;2023-03-07T06:53:39;7.38;64.54
67942;SHT31;54731;42.600;23.476;2023-03-07T06:56:05;7.44;64.18
67942;SHT31;54731;42.600;23.476;2023-03-07T06:58:30;7.58;66.67
67942;SHT31;54731;42.600;23.476;2023-03-07T07:00:55;7.78;66.54
67942;SHT31;54731;42.600;23.476;2023-03-07T07:03:21;7.82;63.36
67942;SHT31;54731;42.600;23.476;2023-03-07T07:05:46;7.87;64.62
67942;SHT31;54731;42.600;23.476;2023-03-07T07:08:11;8.05;64.49
67942;SHT31;54731;42.600;23.476;2023-03-07T07:10:37;8.08;63.37
67942;SHT31;54731;42.600;23.476;2023-03-07T07:13:03;8.11;63.56
67942;SHT31;54731;42.600;23.476;2023-03-07T07:15:29;8.18;63.18
67942;SHT31;54731;42.600;23.476;2023-03-07T07:17:54;8.25;63.67
67942;SHT31;54731;42.600;23.476;2023-03-07T07:20:19;8.31;62.84
67942;SHT31;54731;42.600;23.476;2023-03-07T07:22:45;8.31;62.77
67942;SHT31;54731;42.600;23.476;2023-03-07T07:25:10;8.36;61.21
67942;SHT31;54731;42.600;23.476;2023-03-07T07:27:36;8.43;60.99
67942;SHT31;54731;42.600;23.476;2023-03-07T07:30:03;8.56;61.02
67942;SHT31;54731;42.600;23.476;2023-03-07T07:32:28;8.66;60.42
67942;SHT31;54731;42.600;23.476;2023-03-07T07:34:53;8.70;60.28
67942;SHT31;54731;42.600;23.476;2023-03-07T07:37:19;8.74;58.95
67942;SHT31;54731;42.600;23.476;2023-03-07T07:39:44;8.70;58.45
67942;SHT31;54731;42.600;23.476;2023-03-07T07:42:10;8.62;58.28
67942;SHT31;54731;42.600;23.476;2023-03-07T07:44:36;8.73;59.49
67942;SHT31;54731;42.600;23.476;2023-03-07T07:47:01;8.87;59.64
67942;SHT31;54731;42.600;23.476;2023-03-07T07:49:27;9.01;58.92
67942;SHT31;54731;42.600;23.476;2023-03-07T07:51:52;9.13;59.16
67942;SHT31;54731;42.600;23.476;2023-03-07T07:54:17;9.20;58.87
67942;SHT31;54731;42.600;23.476;2023-03-07T07:56:43;9.23;58.95
67942;SHT31;54731;42.600;23.476;2023-03-07T07:59:08;9.30;58.56
67942;SHT31;54731;42.600;23.476;2023-03-07T08:01:34;9.35;58.34
67942;SHT31;54731;42.600;23.476;2023-03-07T08:03:59;9.38;58.61
67942;SHT31;54731;42.600;23.476;2023-03-07T08:06:26;9.42;59.40
67942;SHT31;54731;42.600;23.476;2023-03-07T08:08:52;9.47;59.22
67942;SHT31;54731;42.600;23.476;2023-03-07T08:11:19;9.45;58.27
67942;SHT31;54731;42.600;23.476;2023-03-07T08:13:46;9.42;58.38
67942;SHT31;54731;42.600;23.476;2023-03-07T08:16:17;9.49;58.51
67942;SHT31;54731;42.600;23.476;2023-03-07T08:18:47;9.62;58.94
67942;SHT31;54731;42.600;23.476;2023-03-07T08:21:13;9.77;59.55
67942;SHT31;54731;42.600;23.476;2023-03-07T08:23:40;9.83;58.82
67942;SHT31;54731;42.600;23.476;2023-03-07T08:26:07;9.92;58.07
67942;SHT31;54731;42.600;23.476;2023-03-07T08:28:32;9.95;57.43
67942;SHT31;54731;42.600;23.476;2023-03-07T08:30:58;9.55;57.72
67942;SHT31;54731;42.600;23.476;2023-03-07T08:33:23;9.59;57.79
67942;SHT31;54731;42.600;23.476;2023-03-07T08:35:48;9.71;57.96
67942;SHT31;54731;42.600;23.476;2023-03-07T08:38:14;9.72;57.50
67942;SHT31;54731;42.600;23.476;2023-03-07T08:40:39;9.68;57.77
67942;SHT31;54731;42.600;23.476;2023-03-07T08:43:05;9.79;57.74
67942;SHT31;54731;42.600;23.476;2023-03-07T08:45:30;9.85;57.77
67942;SHT31;54731;42.600;23.476;2023-03-07T08:47:56;9.82;57.69
67942;SHT31;54731;42.600;23.476;2023-03-07T08:50:23;9.98;57.72
67942;SHT31;54731;42.600;23.476;2023-03-07T08:52:49;10.08;56.87
67942;SHT31;54731;42.600;23.476;2023-03-07T08:55:14;10.16;57.35
67942;SHT31;54731;42.600;23.476;2023-03-07T08:57:39;10.28;57.77
67942;SHT31;54731;42.600;23.476;2023-03-07T09:00:05;10.30;56.61
67942;SHT31;54731;42.600;23.476;2023-03-07T09:02:31;10.37;57.43
67942;SHT31;54731;42.600;23.476;2023-03-07T09:04:56;10.44;56.65
67942;SHT31;54731;42.600;23.476;2023-03-07T09:07:21;10.54;56.07
67942;SHT31;54731;42.600;23.476;2023-03-07T09:09:47;10.63;56.67
67942;SHT31;54731;42.600;23.476;2023-03-07T09:12:12;10.68;55.95
67942;SHT31;54731;42.600;23.476;2023-03-07T09:14:37;10.67;56.51
67942;SHT31;54731;42.600;23.476;2023-03-07T09:17:03;10.70;56.40
67942;SHT31;54731;42.600;23.476;2023-03-07T09:19:28;10.78;56.52
67942;SHT31;54731;42.600;23.476;2023-03-07T09:21:53;10.81;56.19
67942;SHT31;54731;42.600;23.476;2023-03-07T09:24:18;10.77;55.82
67942;SHT31;54731;42.600;23.476;2023-03-07T09:26:44;10.75;56.98
67942;SHT31;54731;42.600;23.476;2023-03-07T09:29:09;10.78;55.04
67942;SHT31;54731;42.600;23.476;2023-03-07T09:31:34;10.66;55.91
67942;SHT31;54731;42.600;23.476;2023-03-07T09:34:00;10.50;56.39
67942;SHT31;54731;42.600;23.476;2023-03-07T09:36:25;10.36;56.59
67942;SHT31;54731;42.600;23.476;2023-03-07T09:38:50;10.37;56.22
67942;SHT31;54731;42.600;23.476;2023-03-07T09:41:40;10.34;56.52
67942;SHT31;54731;42.600;23.476;2023-03-07T09:46:52;10.37;56.39
67942;SHT31;54731;42.600;23.476;2023-03-07T09:49:32;10.42;56.45
67942;SHT31;54731;42.600;23.476;2023-03-07T09:51:59;10.29;56.01
67942;SHT31;54731;42.600;23.476;2023-03-07T09:55:09;10.43;56.23
67942;SHT31;54731;42.600;23.476;2023-03-07T09:57:33;10.59;56.25
67942;SHT31;54731;42.600;23.476;2023-03-07T10:00:20;10.68;55.56
67942;SHT31;54731;42.600;23.476;2023-03-07T10:03:12;10.54;55.95
67942;SHT31;54731;42.600;23.476;2023-03-07T10:05:44;10.78;55.78
67942;SHT31;54731;42.600;23.476;2023-03-07T10:08:16;10.93;54.87
67942;SHT31;54731;42.600;23.476;2023-03-07T10:19:48;11.18;53.55
67942;SHT31;54731;42.600;23.476;2023-03-07T10:22:21;11.35;52.56
67942;SHT31;54731;42.600;23.476;2023-03-07T10:25:16;11.48;51.94
67942;SHT31;54731;42.600;23.476;2023-03-07T10:27:43;11.59;50.71
67942;SHT31;54731;42.600;23.476;2023-03-07T10:30:15;11.78;50.44
67942;SHT31;54731;42.600;23.476;2023-03-07T10:32:54;11.83;49.76
67942;SHT31;54731;42.600;23.476;2023-03-07T10:35:22;11.99;49.44
67942;SHT31;54731;42.600;23.476;2023-03-07T10:37:56;12.13;48.01
67942;SHT31;54731;42.600;23.476;2023-03-07T10:40:40;12.27;49.33
67942;SHT31;54731;42.600;23.476;2023-03-07T10:43:26;12.24;47.59
67942;SHT31;54731;42.600;23.476;2023-03-07T10:46:00;12.50;47.38
67942;SHT31;54731;42.600;23.476;2023-03-07T10:48:28;12.69;47.48
67942;SHT31;54731;42.600;23.476;2023-03-07T10:53:45;12.48;46.08
67942;SHT31;54731;42.600;23.476;2023-03-07T10:56:15;12.60;46.78
67942;SHT31;54731;42.600;23.476;2023-03-07T10:59:02;12.68;46.57
67942;SHT31;54731;42.600;23.476;2023-03-07T11:01:29;12.58;45.69
67942;SHT31;54731;42.600;23.476;2023-03-07T11:06:40;13.12;44.56
67942;SHT31;54731;42.600;23.476;2023-03-07T11:11:50;13.45;43.70
67942;SHT31;54731;42.600;23.476;2023-03-07T11:14:15;13.53;43.40
67942;SHT31;54731;42.600;23.476;2023-03-07T11:16:46;13.79;44.29
67942;SHT31;54731;42.600;23.476;2023-03-07T11:21:58;14.13;42.18
67942;SHT31;54731;42.600;23.476;2023-03-07T11:26:57;13.93;41.37
67942;SHT31;54731;42.600;23.476;2023-03-07T11:29:23;13.79;42.63
67942;SHT31;54731;42.600;23.476;2023-03-07T11:32:01;13.09;43.04
67942;SHT31;54731;42.600;23.476;2023-03-07T11:34:35;13.63;43.28
67942;SHT31;54731;42.600;23.476;2023-03-07T11:37:19;14.01;41.15
67942;SHT31;54731;42.600;23.476;2023-03-07T11:40:17;14.16;42.23
67942;SHT31;54731;42.600;23.476;2023-03-07T11:45:56;14.41;40.30
67942;SHT31;54731;42.600;23.476;2023-03-07T11:51:21;14.79;39.58
67942;SHT31;54731;42.600;23.476;2023-03-07T11:56:46;14.72;39.90
67942;SHT31;54731;42.600;23.476;2023-03-07T12:02:01;14.88;37.77
67942;SHT31;54731;42.600;23.476;2023-03-07T12:10:35;14.92;37.95
67942;SHT31;54731;42.600;23.476;2023-03-07T12:18:48;14.86;36.32
67942;SHT31;54731;42.600;23.476;2023-03-07T12:24:24;15.43;36.91
67942;SHT31;54731;42.600;23.476;2023-03-07T12:29:40;15.73;37.24
67942;SHT31;54731;42.600;23.476;2023-03-07T12:32:11;15.84;36.68
67942;SHT31;54731;42.600;23.476;2023-03-07T12:34:49;15.76;36.84
67942;SHT31;54731;42.600;23.476;2023-03-07T12:37:29;16.04;37.78
67942;SHT31;54731;42.600;23.476;2023-03-07T12:40:09;16.48;37.46
67942;SHT31;54731;42.600;23.476;2023-03-07T12:43:06;16.99;36.94
67942;SHT31;54731;42.600;23.476;2023-03-07T12:45:42;17.00;34.94
67942;SHT31;54731;42.600;23.476;2023-03-07T12:48:35;17.34;36.16
67942;SHT31;54731;42.600;23.476;2023-03-07T12:53:40;18.09;35.03
67942;SHT31;54731;42.600;23.476;2023-03-07T12:56:16;18.36;34.78
67942;SHT31;54731;42.600;23.476;2023-03-07T12:58:49;18.43;33.54
67942;SHT31;54731;42.600;23.476;2023-03-07T13:01:28;18.67;33.16
67942;SHT31;54731;42.600;23.476;2023-03-07T13:06:30;18.59;31.86
67942;SHT31;54731;42.600;23.476;2023-03-07T13:09:00;18.35;29.70
67942;SHT31;54731;42.600;23.476;2023-03-07T13:11:31;18.02;28.51
67942;SHT31;54731;42.600;23.476;2023-03-07T13:14:01;18.09;30.52
67942;SHT31;54731;42.600;23.476;2023-03-07T13:22:00;18.02;27.54
67942;SHT31;54731;42.600;23.476;2023-03-07T13:24:38;17.80;28.22
67942;SHT31;54731;42.600;23.476;2023-03-07T13:27:16;17.51;28.87
67942;SHT31;54731;42.600;23.476;2023-03-07T13:38:42;17.71;29.20
67942;SHT31;54731;42.600;23.476;2023-03-07T13:41:09;17.53;29.65
67942;SHT31;54731;42.600;23.476;2023-03-07T13:46:28;17.90;29.24
67942;SHT31;54731;42.600;23.476;2023-03-07T13:51:20;18.18;29.10
67942;SHT31;54731;42.600;23.476;2023-03-07T13:54:20;18.36;29.46
67942;SHT31;54731;42.600;23.476;2023-03-07T13:56:41;17.90;29.09
67942;SHT31;54731;42.600;23.476;2023-03-07T14:04:16;18.19;28.92
67942;SHT31;54731;42.600;23.476;2023-03-07T14:09:41;18.48;28.19
67942;SHT31;54731;42.600;23.476;2023-03-07T14:20:27;17.92;29.58
67942;SHT31;54731;42.600;23.476;2023-03-07T14:23:04;18.18;29.81
67942;SHT31;54731;42.600;23.476;2023-03-07T14:25:38;18.06;29.44
67942;SHT31;54731;42.600;23.476;2023-03-07T14:28:33;17.88;29.53
67942;SHT31;54731;42.600;23.476;2023-03-07T14:31:02;17.74;29.49
67942;SHT31;54731;42.600;23.476;2023-03-07T14:33:35;17.85;29.24
67942;SHT31;54731;42.600;23.476;2023-03-07T14:36:03;17.84;29.23
67942;SHT31;54731;42.600;23.476;2023-03-07T14:38:28;17.66;29.69
67942;SHT31;54731;42.600;23.476;2023-03-07T14:47:26;17.51;29.30
67942;SHT31;54731;42.600;23.476;2023-03-07T14:52:23;17.00;29.76
67942;SHT31;54731;42.600;23.476;2023-03-07T14:54:49;16.92;30.40
67942;SHT31;54731;42.600;23.476;2023-03-07T14:57:22;17.22;29.84
67942;SHT31;54731;42.600;23.476;2023-03-07T15:02:32;16.72;30.79
67942;SHT31;54731;42.600;23.476;2023-03-07T15:04:57;16.55;30.78
67942;SHT31;54731;42.600;23.476;2023-03-07T15:07:22;16.49;31.19
67942;SHT31;54731;42.600;23.476;2023-03-07T15:09:48;16.38;31.10
67942;SHT31;54731;42.600;23.476;2023-03-07T15:12:17;16.38;31.21
67942;SHT31;54731;42.600;23.476;2023-03-07T15:14:54;16.21;31.23
67942;SHT31;54731;42.600;23.476;2023-03-07T15:17:28;16.25;31.91
67942;SHT31;54731;42.600;23.476;2023-03-07T15:20:01;16.15;30.62
67942;SHT31;54731;42.600;23.476;2023-03-07T15:22:30;15.84;31.02
67942;SHT31;54731;42.600;23.476;2023-03-07T15:24:57;15.76;31.85
67942;SHT31;54731;42.600;23.476;2023-03-07T15:27:26;15.63;31.95
67942;SHT31;54731;42.600;23.476;2023-03-07T15:29:52;15.35;32.30
67942;SHT31;54731;42.600;23.476;2023-03-07T15:34:59;15.03;33.93
67942;SHT31;54731;42.600;23.476;2023-03-07T15:37:27;14.95;33.96
67942;SHT31;54731;42.600;23.476;2023-03-07T15:40:02;14.74;34.67
67942;SHT31;54731;42.600;23.476;2023-03-07T15:42:53;14.62;34.79
67942;SHT31;54731;42.600;23.476;2023-03-07T15:50:34;14.24;35.72
67942;SHT31;54731;42.600;23.476;2023-03-07T15:53:37;14.10;36.28
67942;SHT31;54731;42.600;23.476;2023-03-07T15:56:04;13.87;37.36
67942;SHT31;54731;42.600;23.476;2023-03-07T15:58:33;13.65;37.70
67942;SHT31;54731;42.600;23.476;2023-03-07T16:01:22;13.66;37.79
67942;SHT31;54731;42.600;23.476;2023-03-07T16:09:01;13.30;38.55
67942;SHT31;54731;42.600;23.476;2023-03-07T16:11:26;13.15;38.89
67942;SHT31;54731;42.600;23.476;2023-03-07T16:13:51;13.09;39.27
67942;SHT31;54731;42.600;23.476;2023-03-07T16:16:25;12.99;39.35
67942;SHT31;54731;42.600;23.476;2023-03-07T16:18:51;12.87;39.85
67942;SHT31;54731;42.600;23.476;2023-03-07T16:21:18;12.80;40.31
67942;SHT31;54731;42.600;23.476;2023-03-07T16:23:44;12.69;40.80
67942;SHT31;54731;42.600;23.476;2023-03-07T16:26:13;12.55;41.05
67942;SHT31;54731;42.600;23.476;2023-03-07T16:28:39;12.48;41.55
67942;SHT31;54731;42.600;23.476;2023-03-07T16:31:13;12.38;41.57
67942;SHT31;54731;42.600;23.476;2023-03-07T16:33:38;12.43;41.73
67942;SHT31;54731;42.600;23.476;2023-03-07T16:36:04;12.31;42.19
67942;SHT31;54731;42.600;23.476;2023-03-07T16:38:30;12.26;41.99
67942;SHT31;54731;42.600;23.476;2023-03-07T16:40:55;12.16;42.17
67942;SHT31;54731;42.600;23.476;2023-03-07T16:43:30;12.13;42.28
67942;SHT31;54731;42.600;23.476;2023-03-07T16:45:56;11.99;42.60
67942;SHT31;54731;42.600;23.476;2023-03-07T16:48:21;11.99;43.13
67942;SHT31;54731;42.600;23.476;2023-03-07T16:50:47;11.92;43.10
67942;SHT31;54731;42.600;23.476;2023-03-07T16:53:12;11.87;43.62
67942;SHT31;54731;42.600;23.476;2023-03-07T16:55:37;11.78;43.85
67942;SHT31;54731;42.600;23.476;2023-03-07T16:58:04;11.79;43.75
67942;SHT31;54731;42.600;23.476;2023-03-07T17:00:30;11.63;44.45
67942;SHT31;54731;42.600;23.476;2023-03-07T17:02:58;11.58;44.70
67942;SHT31;54731;42.600;23.476;2023-03-07T17:05:26;11.55;44.72
67942;SHT31;54731;42.600;23.476;2023-03-07T17:07:52;11.51;45.00
67942;SHT31;54731;42.600;23.476;2023-03-07T17:10:18;11.39;44.96
67942;SHT31;54731;42.600;23.476;2023-03-07T17:12:44;11.35;45.35
67942;SHT31;54731;42.600;23.476;2023-03-07T17:15:13;11.32;44.99
67942;SHT31;54731;42.600;23.476;2023-03-07T17:17:39;11.31;45.02
67942;SHT31;54731;42.600;23.476;2023-03-07T17:20:06;11.18;45.63
67942;SHT31;54731;42.600;23.476;2023-03-07T17:22:31;11.17;45.53
67942;SHT31;54731;42.600;23.476;2023-03-07T17:24:56;11.17;45.54
67942;SHT31;54731;42.600;23.476;2023-03-07T17:27:22;11.00;46.02
67942;SHT31;54731;42.600;23.476;2023-03-07T17:29:50;10.98;45.20
67942;SHT31;54731;42.600;23.476;2023-03-07T17:32:16;11.00;45.43
67942;SHT31;54731;42.600;23.476;2023-03-07T17:34:41;10.98;45.65
67942;SHT31;54731;42.600;23.476;2023-03-07T17:37:07;10.94;45.47
67942;SHT31;54731;42.600;23.476;2023-03-07T17:39:34;10.90;45.88